Fontana, Wisconsin
Current Conditions -  °F | °C
As of 6:15 PM on Saturday 25 Oct 2014 (Local Time) from KBUU Reporting Station
Clear Clear  
Wind Chill: 59°   Ceiling: Unl
Heat Index: 59°   Visibility: 10mi
Dew Point: 26°   Wind: 7mph
Humidity: 29%   Direction: 290°WNW
Pressure: 29.92"   Gusts: NA
Location:  42.55°N, 88.57°W
Report Text: KBUU 252315Z AUTO 29006KT 10SM CLR 15/M03 A2992 RMK AO2 T01481032
Loading
Personal Weather Stations






























Interactive Weather Map
Tropical Storm Tracking
New forecast layout! Learn more

10-Day Weather Forecast

Advertisements
Track Severe Weather on mobile